Time;durP1;ratioP1;P1;durP2;ratioP2;P2;SDS_P1;SDS_P2;PMS_P1;PMS_P2;Temp;Humidity;BMP_temperature;BMP_pressure;BME280_temperature;BME280_humidity;BME280_pressure;Samples;Min_cycle;Max_cycle;Signal;HPM_P1;HPM_P2
2023/04/13 00:00:55;;;;;;;5.63;4.03;;;6.00;99.90;;;;;;5059496;28;20118;-62
2023/04/13 00:03:20;;;;;;;7.57;3.90;;;6.00;99.90;;;;;;5052133;28;20043;-61
2023/04/13 00:05:47;;;;;;;6.65;4.13;;;6.10;99.90;;;;;;5066539;28;20033;-61
2023/04/13 00:08:13;;;;;;;4.95;3.67;;;6.10;99.90;;;;;;5061412;28;20060;-61
2023/04/13 00:10:42;;;;;;;6.30;3.90;;;6.20;99.90;;;;;;5053149;28;21305;-62
2023/04/13 00:13:09;;;;;;;5.75;3.60;;;6.20;99.90;;;;;;5043073;28;20037;-62
2023/04/13 00:15:39;;;;;;;5.45;3.92;;;6.20;99.90;;;;;;5049619;28;20036;-62
2023/04/13 00:18:05;;;;;;;5.50;3.40;;;6.30;99.90;;;;;;5052396;28;20063;-61
2023/04/13 00:20:31;;;;;;;4.72;3.60;;;6.30;99.90;;;;;;5053757;28;20125;-61
2023/04/13 00:22:57;;;;;;;5.38;3.97;;;6.40;99.90;;;;;;5053160;28;20120;-62
2023/04/13 00:25:23;;;;;;;5.30;3.28;;;6.40;99.90;;;;;;5054231;28;20533;-61
2023/04/13 00:27:51;;;;;;;3.90;2.92;;;6.40;99.90;;;;;;5051327;28;20498;-62
2023/04/13 00:30:18;;;;;;;4.05;3.20;;;6.50;99.90;;;;;;5074225;28;20037;-61
2023/04/13 00:32:44;;;;;;;4.95;2.60;;;6.50;99.90;;;;;;5058832;28;20045;-62
2023/04/13 00:35:14;;;;;;;3.75;2.25;;;6.60;99.90;;;;;;5053504;28;20041;-62
2023/04/13 00:37:41;;;;;;;4.18;2.28;;;6.70;99.90;;;;;;5052479;28;20052;-62
2023/04/13 00:40:08;;;;;;;3.15;2.00;;;6.80;99.90;;;;;;5034012;28;20048;-62
2023/04/13 00:42:34;;;;;;;3.10;1.77;;;6.90;99.90;;;;;;5034120;28;20049;-62
2023/04/13 00:44:59;;;;;;;6.35;2.42;;;7.00;99.90;;;;;;5055547;28;20067;-62
2023/04/13 00:47:31;;;;;;;3.38;2.05;;;7.00;99.90;;;;;;5065793;28;20410;-61
2023/04/13 00:50:00;;;;;;;3.00;2.05;;;7.00;99.90;;;;;;5052925;28;20487;-62
2023/04/13 00:52:25;;;;;;;4.15;2.40;;;7.00;99.90;;;;;;5034059;28;20044;-61
2023/04/13 00:54:55;;;;;;;3.03;2.08;;;7.00;99.90;;;;;;5054257;28;20040;-62
2023/04/13 00:57:21;;;;;;;2.80;2.00;;;7.00;99.90;;;;;;5069866;28;20033;-62
2023/04/13 00:59:48;;;;;;;3.90;1.95;;;6.90;99.90;;;;;;5050356;28;20179;-62
2023/04/13 01:02:15;;;;;;;3.15;1.85;;;6.90;99.90;;;;;;5049211;28;20557;-63
2023/04/13 01:04:41;;;;;;;7.18;2.30;;;6.80;99.90;;;;;;5052514;28;20410;-63
2023/04/13 01:07:26;;;;;;;3.10;2.10;;;6.80;99.90;;;;;;5055750;28;20121;-63
2023/04/13 01:10:17;;;;;;;3.53;2.03;;;6.80;99.90;;;;;;5052371;28;20441;-63
2023/04/13 01:13:11;;;;;;;2.13;1.52;;;6.70;99.90;;;;;;5061656;28;20121;-62
2023/04/13 01:15:41;;;;;;;2.45;1.77;;;6.70;99.90;;;;;;5052709;28;20039;-62
2023/04/13 01:18:10;;;;;;;2.80;1.63;;;6.70;99.90;;;;;;5044303;28;20037;-62
2023/04/13 01:20:39;;;;;;;3.78;1.88;;;6.70;99.90;;;;;;5050620;28;20746;-62
2023/04/13 01:23:08;;;;;;;2.58;1.27;;;6.70;99.90;;;;;;5053732;28;20064;-63
2023/04/13 01:25:46;;;;;;;2.85;1.40;;;6.60;99.90;;;;;;5055621;28;20032;-62
2023/04/13 01:28:17;;;;;;;2.30;1.30;;;6.70;99.90;;;;;;5040881;28;20037;-62
2023/04/13 01:30:44;;;;;;;;;;;6.60;99.90;;;;;;5053667;28;20446;-62
2023/04/13 01:33:10;;;;;;;1.38;1.20;;;6.60;99.90;;;;;;5062930;28;19920;-61
2023/04/13 01:35:37;;;;;;;3.00;1.45;;;6.60;99.90;;;;;;5056269;28;20044;-61
2023/04/13 01:38:05;;;;;;;2.88;1.27;;;6.60;99.90;;;;;;5053451;28;20036;-61
2023/04/13 01:40:35;;;;;;;3.20;1.58;;;6.60;99.90;;;;;;5063587;28;20741;-61
2023/04/13 01:43:01;;;;;;;2.65;1.20;;;6.60;99.90;;;;;;5076716;22;20060;-65
2023/04/13 01:45:35;;;;;;;2.47;1.50;;;6.60;99.90;;;;;;5055760;28;20186;-65
2023/04/13 01:48:06;;;;;;;3.88;1.23;;;6.60;99.90;;;;;;5046398;28;20040;-65
2023/04/13 01:50:36;;;;;;;3.97;1.57;;;6.70;99.90;;;;;;5053089;28;20036;-64
2023/04/13 01:53:10;;;;;;;3.88;1.60;;;6.60;99.90;;;;;;5049968;28;20380;-64
2023/04/13 01:55:37;;;;;;;3.85;1.38;;;6.60;99.90;;;;;;5030430;28;20111;-64
2023/04/13 01:58:05;;;;;;;5.60;1.35;;;6.50;99.90;;;;;;5040431;28;20628;-65
2023/04/13 02:00:39;;;;;;;4.53;1.52;;;6.60;99.90;;;;;;5035317;28;20221;-65
2023/04/13 02:03:08;;;;;;;4.57;1.60;;;6.60;99.90;;;;;;5026308;28;20040;-65
2023/04/13 02:05:35;;;;;;;4.90;1.60;;;6.60;99.90;;;;;;5015050;28;20119;-66
2023/04/13 02:08:05;;;;;;;3.17;1.67;;;6.60;99.90;;;;;;5044984;28;20044;-66
2023/04/13 02:10:31;;;;;;;2.90;1.45;;;6.60;99.90;;;;;;5040762;28;20033;-66
2023/04/13 02:12:57;;;;;;;3.10;1.42;;;6.60;99.90;;;;;;5031727;28;20499;-66
2023/04/13 02:15:23;;;;;;;3.08;1.50;;;6.60;99.90;;;;;;5037849;28;20033;-66
2023/04/13 02:17:49;;;;;;;7.32;1.88;;;6.60;99.90;;;;;;5032464;28;20045;-66
2023/04/13 02:20:15;;;;;;;3.90;1.50;;;6.60;99.90;;;;;;5035400;28;20120;-66
2023/04/13 02:22:42;;;;;;;4.80;1.80;;;6.60;99.90;;;;;;5045000;28;20044;-66
2023/04/13 02:25:10;;;;;;;3.67;1.67;;;6.50;99.90;;;;;;5025870;28;20044;-66
2023/04/13 02:27:37;;;;;;;3.35;1.70;;;6.50;99.90;;;;;;5032380;28;20447;-66
2023/04/13 02:30:04;;;;;;;3.15;1.70;;;6.50;99.90;;;;;;5031377;28;20033;-66
2023/04/13 02:32:31;;;;;;;3.20;1.55;;;6.50;99.90;;;;;;5027913;28;20041;-66
2023/04/13 02:34:58;;;;;;;3.17;1.40;;;6.50;99.90;;;;;;5025311;28;20042;-66
2023/04/13 02:37:24;;;;;;;3.42;1.60;;;6.50;99.90;;;;;;5042823;28;20037;-66
2023/04/13 02:39:49;;;;;;;4.07;1.40;;;6.50;99.90;;;;;;5038114;28;20084;-66
2023/04/13 02:42:16;;;;;;;2.95;1.50;;;6.50;99.90;;;;;;5037873;28;20120;-66
2023/04/13 02:44:41;;;;;;;2.83;1.38;;;6.50;99.90;;;;;;5030448;28;20041;-66
2023/04/13 02:47:08;;;;;;;2.85;1.58;;;6.50;99.90;;;;;;5031940;28;20061;-66
2023/04/13 02:49:34;;;;;;;4.43;1.58;;;6.50;99.90;;;;;;5032528;28;20087;-66
2023/04/13 02:52:00;;;;;;;2.10;1.13;;;6.50;99.90;;;;;;5031558;28;20463;-66
2023/04/13 02:54:26;;;;;;;2.85;1.42;;;6.50;99.90;;;;;;5037917;28;20033;-66
2023/04/13 02:56:51;;;;;;;3.45;1.48;;;6.50;99.90;;;;;;5031496;28;20087;-66
2023/04/13 02:59:17;;;;;;;3.83;1.25;;;6.50;99.90;;;;;;5030674;28;20033;-66
2023/04/13 03:01:44;;;;;;;4.03;1.65;;;6.50;99.90;;;;;;5030029;28;20427;-67
2023/04/13 03:04:10;;;;;;;4.13;1.48;;;6.60;99.90;;;;;;5027058;28;20124;-66
2023/04/13 03:06:36;;;;;;;2.00;1.25;;;6.60;99.90;;;;;;5026931;28;20043;-66
2023/04/13 03:09:03;;;;;;;3.00;1.20;;;6.60;99.90;;;;;;5042278;28;20129;-66
2023/04/13 03:11:28;;;;;;;2.45;1.05;;;6.60;99.90;;;;;;5031065;28;20045;-66
2023/04/13 03:13:56;;;;;;;4.50;1.58;;;6.60;99.90;;;;;;5039627;28;20045;-66
2023/04/13 03:16:22;;;;;;;4.18;1.50;;;6.60;99.90;;;;;;5036167;28;20050;-66
2023/04/13 03:18:48;;;;;;;3.50;1.50;;;6.60;99.90;;;;;;5031573;28;20459;-66
2023/04/13 03:21:14;;;;;;;2.47;1.45;;;6.60;99.90;;;;;;5028781;28;20403;-66
2023/04/13 03:23:40;;;;;;;4.00;1.67;;;6.60;99.90;;;;;;5038315;28;20048;-66
2023/04/13 03:26:06;;;;;;;3.25;1.70;;;6.60;99.90;;;;;;5034619;28;20037;-66
2023/04/13 03:28:31;;;;;;;2.80;1.60;;;6.60;99.90;;;;;;5036275;28;20040;-66
2023/04/13 03:30:57;;;;;;;4.05;1.90;;;6.60;99.90;;;;;;5028190;28;20041;-66
2023/04/13 03:33:22;;;;;;;4.38;2.08;;;6.60;99.90;;;;;;5030555;28;20044;-65
2023/04/13 03:35:48;;;;;;;3.25;2.10;;;6.60;99.90;;;;;;5031463;28;20052;-65
2023/04/13 03:38:13;;;;;;;2.78;1.85;;;6.60;99.90;;;;;;5028697;28;20044;-65
2023/04/13 03:40:39;;;;;;;3.33;1.55;;;6.60;99.90;;;;;;5012650;28;20030;-65
2023/04/13 03:43:04;;;;;;;2.55;1.70;;;6.60;99.90;;;;;;5017324;28;20120;-64
2023/04/13 03:45:30;;;;;;;3.97;1.98;;;6.60;99.90;;;;;;5033166;28;20037;-64
2023/04/13 03:47:56;;;;;;;3.33;2.05;;;6.60;99.90;;;;;;5016126;28;20045;-64
2023/04/13 03:50:21;;;;;;;2.80;1.95;;;6.50;99.90;;;;;;5038764;28;20040;-64
2023/04/13 03:52:47;;;;;;;5.13;1.90;;;6.60;99.90;;;;;;5043417;28;20539;-65
2023/04/13 03:55:12;;;;;;;6.90;1.80;;;6.60;99.90;;;;;;5034748;28;20041;-64
2023/04/13 03:57:38;;;;;;;4.65;1.80;;;6.60;99.90;;;;;;5042562;28;20407;-64
2023/04/13 04:00:06;;;;;;;3.20;1.67;;;6.60;99.90;;;;;;5012044;28;20045;-64
2023/04/13 04:02:31;;;;;;;4.07;2.25;;;6.60;99.90;;;;;;5005986;28;20037;-64
2023/04/13 04:04:58;;;;;;;2.63;1.77;;;6.60;99.90;;;;;;5037488;28;20040;-64
2023/04/13 04:07:24;;;;;;;3.22;1.90;;;6.60;99.90;;;;;;5027985;28;20124;-65
2023/04/13 04:09:50;;;;;;;3.83;2.00;;;6.60;99.90;;;;;;5033387;28;20622;-65
2023/04/13 04:12:15;;;;;;;3.60;2.10;;;6.70;99.90;;;;;;5039971;28;20037;-65
2023/04/13 04:14:41;;;;;;;4.68;1.88;;;6.60;99.90;;;;;;5030660;28;20046;-65
2023/04/13 04:17:06;;;;;;;2.40;1.88;;;6.70;99.90;;;;;;5033988;28;20079;-65
2023/04/13 04:19:32;;;;;;;6.13;2.20;;;6.70;99.90;;;;;;5040414;28;20076;-64
2023/04/13 04:22:03;;;;;;;3.97;2.00;;;6.70;99.90;;;;;;5049531;28;20486;-64
2023/04/13 04:24:29;;;;;;;3.92;2.20;;;6.70;99.90;;;;;;5033958;28;20034;-64
2023/04/13 04:26:56;;;;;;;5.78;2.03;;;6.70;99.90;;;;;;5023294;28;20534;-64
2023/04/13 04:29:32;;;;;;;4.50;2.40;;;6.70;99.90;;;;;;5052204;28;20119;-64
2023/04/13 04:31:59;;;;;;;4.22;2.00;;;6.70;99.90;;;;;;5043943;28;20384;-64
2023/04/13 04:34:25;;;;;;;3.05;2.10;;;6.70;99.90;;;;;;5045858;28;20036;-64
2023/04/13 04:36:51;;;;;;;4.00;2.25;;;6.70;99.90;;;;;;5039256;28;20117;-64
2023/04/13 04:39:25;;;;;;;3.03;2.13;;;6.70;99.90;;;;;;5034654;28;20108;-63
2023/04/13 04:42:01;;;;;;;6.25;2.92;;;6.70;99.90;;;;;;5047883;28;20120;-64
2023/04/13 04:44:29;;;;;;;4.65;2.30;;;6.70;99.90;;;;;;5039936;28;20457;-64
2023/04/13 04:46:57;;;;;;;4.13;1.95;;;6.80;99.90;;;;;;5053521;28;20477;-64
2023/04/13 04:49:24;;;;;;;3.40;2.40;;;6.70;99.90;;;;;;5009243;28;20069;-64
2023/04/13 04:51:50;;;;;;;6.85;3.03;;;6.70;99.90;;;;;;5031886;28;20042;-64
2023/04/13 04:54:17;;;;;;;4.30;2.78;;;6.70;99.90;;;;;;5039357;28;20032;-64
2023/04/13 04:56:44;;;;;;;3.85;2.50;;;6.70;99.90;;;;;;5052726;28;20033;-64
2023/04/13 04:59:10;;;;;;;5.32;2.60;;;6.70;99.90;;;;;;5045588;28;20041;-64
2023/04/13 05:01:35;;;;;;;3.22;2.13;;;6.60;99.90;;;;;;5038575;28;20036;-64
2023/04/13 05:04:01;;;;;;;3.75;2.40;;;6.60;99.90;;;;;;5037042;28;20045;-64
2023/04/13 05:06:31;;;;;;;4.75;2.60;;;6.60;99.90;;;;;;5048677;28;20037;-64
2023/04/13 05:08:57;;;;;;;4.68;2.58;;;6.60;99.90;;;;;;5046730;28;20411;-64
2023/04/13 05:11:22;;;;;;;4.72;2.35;;;6.50;99.90;;;;;;5017326;28;20037;-63
2023/04/13 05:13:48;;;;;;;5.57;2.40;;;6.50;99.90;;;;;;5035076;28;20045;-64
2023/04/13 05:16:14;;;;;;;3.83;2.10;;;6.50;99.90;;;;;;5044235;28;20559;-63
2023/04/13 05:18:47;;;;;;;3.70;2.25;;;6.50;99.90;;;;;;5038514;28;20578;-64
2023/04/13 05:21:13;;;;;;;4.85;2.47;;;6.50;99.90;;;;;;5036660;28;20056;-63
2023/04/13 05:23:39;;;;;;;4.65;2.78;;;6.50;99.90;;;;;;5033029;28;20037;-63
2023/04/13 05:26:05;;;;;;;6.32;2.40;;;6.50;99.90;;;;;;5036775;28;20086;-64
2023/04/13 05:28:33;;;;;;;4.70;2.55;;;6.40;99.90;;;;;;5033378;28;20036;-63
2023/04/13 05:31:02;;;;;;;6.30;2.50;;;6.40;99.90;;;;;;5046292;28;20042;-64
2023/04/13 05:33:29;;;;;;;4.10;2.80;;;6.50;99.90;;;;;;5041217;28;20384;-63
2023/04/13 05:35:55;;;;;;;4.47;3.10;;;6.50;99.90;;;;;;5036216;28;20034;-63
2023/04/13 05:38:21;;;;;;;4.75;2.92;;;6.50;99.90;;;;;;5043528;28;20554;-64
2023/04/13 05:40:48;;;;;;;6.43;3.38;;;6.50;99.90;;;;;;5029532;28;20144;-64
2023/04/13 05:43:14;;;;;;;4.82;3.00;;;6.50;99.90;;;;;;5044427;28;20045;-63
2023/04/13 05:45:40;;;;;;;5.82;2.90;;;6.50;99.90;;;;;;5040477;28;20037;-64
2023/04/13 05:48:06;;;;;;;5.20;3.22;;;6.60;99.90;;;;;;5042984;28;20037;-64
2023/04/13 05:50:31;;;;;;;5.53;3.47;;;6.60;99.90;;;;;;5042765;28;20033;-64
2023/04/13 05:52:57;;;;;;;7.20;4.00;;;6.60;99.90;;;;;;5027277;28;20415;-64
2023/04/13 05:55:23;;;;;;;8.43;4.57;;;6.60;99.90;;;;;;5032264;28;20505;-64
2023/04/13 05:57:50;;;;;;;11.85;4.68;;;6.70;99.90;;;;;;5024843;28;20048;-64
2023/04/13 06:00:17;;;;;;;8.50;4.53;;;6.70;99.90;;;;;;5021213;28;20106;-64
2023/04/13 06:02:44;;;;;;;10.30;4.50;;;6.80;99.90;;;;;;5030604;28;21164;-64
2023/04/13 06:05:13;;;;;;;8.30;4.22;;;6.90;99.90;;;;;;5014965;28;20053;-63
2023/04/13 06:07:39;;;;;;;6.55;3.92;;;6.90;99.90;;;;;;5032269;28;20041;-64
2023/04/13 06:10:05;;;;;;;9.38;4.30;;;7.00;99.90;;;;;;5029373;28;20415;-64
2023/04/13 06:12:31;;;;;;;8.43;3.90;;;7.00;99.90;;;;;;5046517;28;20083;-64
2023/04/13 06:14:56;;;;;;;7.20;3.70;;;7.00;99.90;;;;;;5033772;28;20514;-64
2023/04/13 06:17:22;;;;;;;9.50;4.38;;;7.10;99.90;;;;;;5037319;28;20043;-64
2023/04/13 06:19:47;;;;;;;8.80;4.68;;;7.10;99.90;;;;;;5031369;28;20052;-64
2023/04/13 06:22:13;;;;;;;10.02;4.30;;;7.20;99.90;;;;;;5026487;28;20116;-64
2023/04/13 06:24:38;;;;;;;11.70;3.97;;;7.20;99.90;;;;;;5033663;28;20088;-64
2023/04/13 06:27:04;;;;;;;10.38;4.38;;;7.30;99.90;;;;;;5031732;28;20123;-63
2023/04/13 06:29:30;;;;;;;9.90;3.80;;;7.30;99.90;;;;;;5036276;28;20029;-63
2023/04/13 06:31:56;;;;;;;9.82;4.28;;;7.30;99.90;;;;;;5039185;28;20041;-64
2023/04/13 06:34:21;;;;;;;8.45;3.83;;;7.30;99.90;;;;;;5025194;28;20124;-64
2023/04/13 06:36:47;;;;;;;6.72;4.00;;;7.40;99.90;;;;;;5026063;28;20073;-63
2023/04/13 06:39:12;;;;;;;9.55;4.22;;;7.40;99.90;;;;;;5025064;28;20057;-64
2023/04/13 06:41:38;;;;;;;8.32;3.83;;;7.40;99.90;;;;;;5018698;28;20068;-64
2023/04/13 06:44:04;;;;;;;4.93;3.55;;;7.50;99.90;;;;;;5023023;28;20041;-63
2023/04/13 06:46:30;;;;;;;9.10;3.97;;;7.50;99.90;;;;;;5037960;28;20033;-64
2023/04/13 06:48:55;;;;;;;10.10;4.43;;;7.60;99.90;;;;;;5033192;28;20242;-63
2023/04/13 06:51:21;;;;;;;9.52;3.92;;;7.60;99.90;;;;;;5028841;28;20037;-63
2023/04/13 06:53:46;;;;;;;8.98;4.20;;;7.70;99.90;;;;;;5027985;28;20103;-64
2023/04/13 06:56:12;;;;;;;8.52;3.42;;;7.80;99.90;;;;;;5043501;28;20124;-64
2023/04/13 06:58:38;;;;;;;9.73;4.72;;;8.00;99.90;;;;;;5034174;28;20076;-63
2023/04/13 07:01:03;;;;;;;6.10;3.60;;;8.00;99.90;;;;;;5028534;28;20032;-63
2023/04/13 07:03:29;;;;;;;6.53;4.20;;;8.00;99.90;;;;;;5032339;28;20453;-63
2023/04/13 07:05:54;;;;;;;6.20;2.58;;;8.00;99.90;;;;;;5031697;28;20121;-64
2023/04/13 07:08:20;;;;;;;9.82;3.65;;;8.20;99.90;;;;;;5016984;28;20041;-64
2023/04/13 07:10:46;;;;;;;10.45;4.13;;;8.20;99.90;;;;;;5046936;28;20037;-64
2023/04/13 07:13:11;;;;;;;9.48;4.18;;;8.20;99.90;;;;;;5031055;28;20087;-63
2023/04/13 07:15:37;;;;;;;8.40;3.72;;;8.20;99.90;;;;;;5046534;28;20039;-64
2023/04/13 07:18:03;;;;;;;10.32;4.10;;;8.20;99.90;;;;;;5032927;28;20049;-64
2023/04/13 07:20:29;;;;;;;7.57;3.47;;;8.20;99.90;;;;;;5029397;28;20045;-64
2023/04/13 07:22:54;;;;;;;8.15;3.25;;;8.30;99.90;;;;;;5028532;28;20044;-64
2023/04/13 07:25:20;;;;;;;7.57;3.17;;;8.30;99.90;;;;;;5035258;28;20030;-64
2023/04/13 07:27:47;;;;;;;9.30;3.95;;;8.30;99.90;;;;;;5028948;28;20030;-64
2023/04/13 07:30:13;;;;;;;6.20;3.08;;;8.30;99.90;;;;;;5048620;28;20033;-62
2023/04/13 07:32:39;;;;;;;6.72;3.47;;;8.40;99.90;;;;;;5040470;28;20044;-64
2023/04/13 07:35:05;;;;;;;11.45;3.40;;;8.40;99.90;;;;;;5010067;28;20124;-64
2023/04/13 07:37:31;;;;;;;7.43;2.92;;;8.40;99.90;;;;;;5037548;28;20029;-64
2023/04/13 07:39:57;;;;;;;5.30;2.50;;;8.40;99.90;;;;;;5020806;28;20465;-64
2023/04/13 07:42:24;;;;;;;6.32;2.78;;;8.40;99.90;;;;;;5058290;22;20480;-62
2023/04/13 07:44:51;;;;;;;5.57;2.83;;;8.50;99.90;;;;;;5071209;28;20044;-62
2023/04/13 07:47:16;;;;;;;5.65;2.13;;;8.50;99.90;;;;;;5083937;28;20513;-62
2023/04/13 07:49:42;;;;;;;4.00;2.85;;;8.50;99.90;;;;;;5082981;28;20048;-62
2023/04/13 07:52:08;;;;;;;4.32;2.10;;;8.50;99.90;;;;;;5068752;28;20029;-62
2023/04/13 07:54:35;;;;;;;5.88;2.45;;;8.50;99.90;;;;;;5066943;28;20090;-62
2023/04/13 07:57:02;;;;;;;6.72;3.00;;;8.50;99.90;;;;;;5070798;28;20048;-62
2023/04/13 07:59:28;;;;;;;2.58;1.75;;;8.50;99.90;;;;;;5073459;28;20478;-61
2023/04/13 08:01:54;;;;;;;4.78;2.22;;;8.60;99.90;;;;;;5068507;28;20033;-62
2023/04/13 08:04:20;;;;;;;6.05;2.30;;;8.60;99.90;;;;;;5065290;28;20078;-62
2023/04/13 08:06:47;;;;;;;6.63;2.55;;;8.60;99.90;;;;;;5070223;28;20483;-62
2023/04/13 08:09:13;;;;;;;5.50;2.22;;;8.60;99.90;;;;;;5082247;28;20040;-62
2023/04/13 08:11:40;;;;;;;3.85;1.60;;;8.60;99.90;;;;;;5069909;28;20032;-61
2023/04/13 08:14:08;;;;;;;2.83;1.80;;;8.80;99.90;;;;;;5073525;28;20406;-62
2023/04/13 08:16:34;;;;;;;2.80;1.73;;;9.00;99.90;;;;;;5070586;28;20036;-62
2023/04/13 08:19:06;;;;;;;4.72;2.28;;;9.10;99.90;;;;;;5068199;28;20062;-62
2023/04/13 08:21:31;;;;;;;2.75;1.83;;;9.10;99.90;;;;;;5055306;28;20041;-62
2023/04/13 08:23:57;;;;;;;4.82;2.40;;;9.20;99.90;;;;;;5080657;28;20125;-62
2023/04/13 08:26:23;;;;;;;5.45;2.30;;;9.20;99.90;;;;;;5084944;28;20024;-62
2023/04/13 08:28:51;;;;;;;4.32;2.03;;;9.30;99.90;;;;;;5089688;28;20425;-62
2023/04/13 08:31:17;;;;;;;5.32;2.13;;;9.40;99.90;;;;;;5092718;28;20043;-62
2023/04/13 08:33:43;;;;;;;3.53;2.00;;;9.50;99.90;;;;;;5086386;28;20040;-62
2023/04/13 08:36:09;;;;;;;4.75;2.03;;;9.50;99.90;;;;;;5084386;28;20117;-62
2023/04/13 08:38:34;;;;;;;5.85;2.17;;;9.50;99.90;;;;;;5086226;28;20036;-62
2023/04/13 08:41:02;;;;;;;2.92;2.25;;;9.40;99.90;;;;;;5085632;28;20075;-62
2023/04/13 08:43:28;;;;;;;3.58;2.28;;;9.30;99.90;;;;;;5093900;28;20059;-62
2023/04/13 08:45:53;;;;;;;6.57;3.03;;;9.20;99.90;;;;;;5094625;28;20036;-61
2023/04/13 08:48:21;;;;;;;5.00;3.25;;;9.10;99.90;;;;;;5070324;28;20032;-62
2023/04/13 08:50:51;;;;;;;5.95;2.90;;;9.00;99.90;;;;;;5067081;28;20073;-62
2023/04/13 08:53:17;;;;;;;5.95;3.22;;;9.00;99.90;;;;;;5085127;28;20040;-61
2023/04/13 08:55:44;;;;;;;5.97;3.50;;;8.90;99.90;;;;;;5090610;28;20087;-61
2023/04/13 08:58:11;;;;;;;7.78;3.45;;;8.90;99.90;;;;;;5094383;28;20036;-61
2023/04/13 09:00:40;;;;;;;5.47;3.10;;;8.80;99.90;;;;;;5093748;28;20040;-62
2023/04/13 09:03:06;;;;;;;3.70;2.67;;;8.80;99.90;;;;;;5082554;28;20101;-61
2023/04/13 09:05:37;;;;;;;4.95;2.83;;;8.80;99.90;;;;;;5089094;28;20031;-61
2023/04/13 09:08:05;;;;;;;5.72;2.42;;;8.70;99.90;;;;;;5083073;28;20060;-62
2023/04/13 09:10:31;;;;;;;3.75;2.33;;;8.70;99.90;;;;;;5094124;28;20044;-63
2023/04/13 09:12:56;;;;;;;5.85;2.70;;;8.60;99.90;;;;;;5075509;28;20050;-63
2023/04/13 09:15:23;;;;;;;6.25;2.85;;;8.50;99.90;;;;;;5088790;28;20082;-63
2023/04/13 09:17:49;;;;;;;4.85;1.75;;;8.50;99.90;;;;;;5082112;28;20094;-62
2023/04/13 09:20:21;;;;;;;3.83;1.08;;;8.40;99.90;;;;;;5071662;28;20494;-63
2023/04/13 09:22:48;;;;;;;1.67;0.63;;;8.20;99.90;;;;;;5062610;28;20048;-63
2023/04/13 09:25:28;;;;;;;4.22;0.80;;;8.10;99.90;;;;;;5066627;28;20036;-63
2023/04/13 09:27:55;;;;;;;1.90;0.50;;;7.90;99.90;;;;;;5091345;28;20096;-63
2023/04/13 09:30:22;;;;;;;1.77;0.50;;;7.80;99.90;;;;;;5084069;28;20060;-63
2023/04/13 09:33:03;;;;;;;1.48;0.63;;;7.70;99.90;;;;;;5066967;28;20047;-62
2023/04/13 09:35:30;;;;;;;2.70;0.50;;;7.70;99.90;;;;;;5078976;28;20542;-62
2023/04/13 09:37:56;;;;;;;3.13;0.60;;;7.70;99.90;;;;;;5068429;28;20037;-62
2023/04/13 09:40:22;;;;;;;1.88;0.80;;;7.70;99.90;;;;;;5080362;28;20094;-63
2023/04/13 09:42:57;;;;;;;2.33;0.70;;;7.70;99.90;;;;;;5089237;28;20046;-63
2023/04/13 09:45:23;;;;;;;1.30;0.70;;;7.80;99.90;;;;;;5074346;28;20490;-62
2023/04/13 09:47:51;;;;;;;3.20;0.90;;;7.90;99.90;;;;;;5066815;28;20040;-62
2023/04/13 09:50:27;;;;;;;1.27;0.82;;;8.00;99.90;;;;;;5064650;28;20032;-62
2023/04/13 09:53:05;;;;;;;2.33;1.00;;;8.10;99.90;;;;;;5068232;28;20043;-62
2023/04/13 09:55:33;;;;;;;2.95;0.93;;;8.10;99.90;;;;;;5064912;28;20135;-63
2023/04/13 09:58:08;;;;;;;2.55;1.05;;;8.10;99.90;;;;;;5067241;28;20036;-62
2023/04/13 10:00:37;;;;;;;3.78;1.00;;;8.20;99.90;;;;;;5077461;28;20497;-63
2023/04/13 10:03:08;;;;;;;3.35;0.60;;;8.10;99.90;;;;;;5052997;28;20059;-62
2023/04/13 10:05:33;;;;;;;1.92;0.85;;;8.10;99.90;;;;;;5072006;28;20400;-62
2023/04/13 10:08:00;;;;;;;1.23;0.70;;;8.30;99.90;;;;;;5070197;28;20040;-62
2023/04/13 10:10:26;;;;;;;3.17;0.98;;;8.50;99.90;;;;;;5046169;28;20394;-62
2023/04/13 10:12:55;;;;;;;1.23;0.90;;;8.90;99.90;;;;;;5065816;28;20044;-62
2023/04/13 10:15:30;;;;;;;4.22;0.90;;;9.20;99.90;;;;;;5049369;28;20040;-62
2023/04/13 10:18:06;;;;;;;3.50;1.13;;;9.40;99.90;;;;;;5051674;28;20115;-62
2023/04/13 10:20:33;;;;;;;2.75;1.00;;;9.70;99.90;;;;;;5076287;28;20040;-62
2023/04/13 10:22:59;;;;;;;3.10;1.35;;;9.90;99.90;;;;;;5069279;28;20379;-62
2023/04/13 10:25:26;;;;;;;4.60;1.40;;;9.90;99.90;;;;;;5064480;28;20040;-62
2023/04/13 10:27:57;;;;;;;4.47;1.40;;;9.90;99.90;;;;;;5063756;28;20442;-61
2023/04/13 10:30:23;;;;;;;7.68;1.70;;;9.90;99.90;;;;;;5079562;28;20036;-62
2023/04/13 10:33:08;;;;;;;7.25;1.95;;;9.80;99.90;;;;;;5061636;28;20425;-62
2023/04/13 10:35:39;;;;;;;6.68;1.55;;;9.80;99.90;;;;;;5070189;28;20500;-61
2023/04/13 10:38:07;;;;;;;4.32;1.90;;;9.80;99.90;;;;;;5049893;28;20486;-61
2023/04/13 10:40:45;;;;;;;8.70;1.50;;;9.80;99.90;;;;;;5048257;28;20040;-61
2023/04/13 10:43:11;;;;;;;6.90;1.98;;;9.70;99.90;;;;;;5068994;28;20116;-61
2023/04/13 10:45:37;;;;;;;6.18;1.73;;;9.70;99.90;;;;;;5076015;28;20107;-62
2023/04/13 10:48:03;;;;;;;7.18;2.17;;;9.80;99.90;;;;;;5069599;28;20371;-62
2023/04/13 10:50:29;;;;;;;5.57;1.88;;;9.90;99.90;;;;;;5076609;28;20484;-62
2023/04/13 10:53:06;;;;;;;6.45;1.77;;;10.10;99.90;;;;;;5080078;28;20032;-62
2023/04/13 10:55:33;;;;;;;9.18;2.10;;;10.20;99.90;;;;;;5077026;28;20032;-62
2023/04/13 10:58:00;;;;;;;10.45;2.55;;;10.20;99.90;;;;;;5069569;28;20387;-62
2023/04/13 11:00:29;;;;;;;9.50;1.98;;;10.20;99.90;;;;;;5071524;28;20029;-61
2023/04/13 11:02:56;;;;;;;7.70;1.92;;;10.10;99.90;;;;;;5052513;28;20041;-62
2023/04/13 11:05:25;;;;;;;6.22;2.03;;;10.10;99.90;;;;;;5069470;28;20417;-61
2023/04/13 11:07:51;;;;;;;7.32;1.90;;;10.20;99.90;;;;;;5068745;28;20633;-61
2023/04/13 11:10:25;;;;;;;10.35;2.20;;;10.20;99.90;;;;;;5079030;28;20024;-61
2023/04/13 11:12:53;;;;;;;8.90;1.88;;;10.20;99.90;;;;;;5070624;28;20033;-61
2023/04/13 11:15:23;;;;;;;8.80;2.38;;;10.30;99.90;;;;;;5062743;28;20043;-61
2023/04/13 11:17:56;;;;;;;12.70;2.70;;;10.30;99.90;;;;;;5052653;28;20049;-61
2023/04/13 11:20:33;;;;;;;6.50;1.85;;;10.30;99.90;;;;;;5052096;28;20086;-61
2023/04/13 11:23:02;;;;;;;8.27;2.53;;;10.30;99.90;;;;;;5049153;28;20052;-61
2023/04/13 11:25:28;;;;;;;8.90;2.08;;;10.30;99.90;;;;;;5062854;28;20493;-61
2023/04/13 11:27:59;;;;;;;8.70;2.38;;;10.40;99.90;;;;;;5064384;28;20039;-61
2023/04/13 11:30:25;;;;;;;10.70;2.28;;;10.40;99.90;;;;;;5060600;28;20033;-61
2023/04/13 11:32:52;;;;;;;9.13;2.53;;;10.40;99.90;;;;;;5066129;28;20045;-61
2023/04/13 11:35:18;;;;;;;5.75;1.95;;;10.40;99.90;;;;;;5065753;28;20402;-61
2023/04/13 11:37:49;;;;;;;7.88;1.88;;;10.40;99.90;;;;;;5068245;28;20050;-61
2023/04/13 11:40:16;;;;;;;;;;;10.50;99.90;;;;;;5065370;28;20115;-61
2023/04/13 11:42:47;;;;;;;8.20;2.00;;;10.50;99.90;;;;;;5077990;28;19935;-61
2023/04/13 11:45:15;;;;;;;11.20;2.17;;;10.60;99.90;;;;;;5064206;28;20068;-61
2023/04/13 11:47:41;;;;;;;14.43;2.47;;;10.70;99.90;;;;;;5066309;28;20032;-60
2023/04/13 11:50:07;;;;;;;6.50;1.88;;;10.90;99.90;;;;;;5061349;28;20039;-61
2023/04/13 11:52:37;;;;;;;7.32;1.60;;;11.00;99.90;;;;;;5067565;28;20078;-61
2023/04/13 11:55:05;;;;;;;9.63;2.03;;;11.00;99.90;;;;;;5045320;28;20076;-61
2023/04/13 11:57:32;;;;;;;8.48;1.95;;;11.00;99.90;;;;;;5062289;28;20043;-61
2023/04/13 11:59:58;;;;;;;12.55;2.35;;;10.90;99.90;;;;;;5063568;28;20048;-61
2023/04/13 12:02:25;;;;;;;10.18;2.00;;;10.80;99.90;;;;;;5066431;28;20370;-61
2023/04/13 12:04:51;;;;;;;12.55;1.85;;;10.70;99.90;;;;;;5046364;28;20094;-61
2023/04/13 12:07:17;;;;;;;10.38;1.95;;;10.50;99.90;;;;;;5046255;28;20041;-61
2023/04/13 12:09:44;;;;;;;8.20;2.13;;;10.50;99.90;;;;;;5070547;28;20513;-61
2023/04/13 12:12:21;;;;;;;8.63;2.45;;;10.40;99.90;;;;;;5046480;28;20126;-61
2023/04/13 12:14:54;;;;;;;10.43;2.15;;;10.30;99.90;;;;;;5061236;28;20367;-61
2023/04/13 12:17:20;;;;;;;8.48;1.77;;;10.30;99.90;;;;;;5065080;28;20036;-61
2023/04/13 12:19:53;;;;;;;8.93;1.75;;;10.30;99.90;;;;;;5072910;28;20393;-61
2023/04/13 12:22:19;;;;;;;9.23;1.95;;;10.20;99.90;;;;;;5062041;28;20036;-61
2023/04/13 12:24:45;;;;;;;11.32;2.33;;;10.20;99.90;;;;;;5062984;28;20163;-61
2023/04/13 12:27:11;;;;;;;12.40;2.25;;;10.20;99.90;;;;;;5067523;28;20558;-61
2023/04/13 12:29:38;;;;;;;18.17;2.20;;;10.10;99.90;;;;;;5063476;28;20041;-61
2023/04/13 12:32:10;;;;;;;7.43;1.70;;;10.20;99.90;;;;;;5071527;28;20127;-61
2023/04/13 12:34:36;;;;;;;9.38;1.80;;;10.20;99.90;;;;;;5072001;28;20398;-61
2023/04/13 12:37:03;;;;;;;8.20;1.60;;;10.20;99.90;;;;;;5084596;28;20047;-61
2023/04/13 12:39:28;;;;;;;7.10;1.83;;;10.20;99.90;;;;;;5067873;28;20037;-61
2023/04/13 12:41:54;;;;;;;7.13;1.92;;;10.20;99.90;;;;;;5068980;28;20410;-61
2023/04/13 12:44:19;;;;;;;6.57;1.80;;;10.10;99.90;;;;;;5086037;28;20497;-60
2023/04/13 12:46:45;;;;;;;9.48;1.90;;;10.00;99.90;;;;;;5080136;28;20044;-60
2023/04/13 12:49:10;;;;;;;9.43;1.85;;;10.10;99.90;;;;;;5062225;28;20308;-61
2023/04/13 12:51:36;;;;;;;10.13;2.17;;;10.30;99.90;;;;;;5070449;28;20044;-61
2023/04/13 12:54:01;;;;;;;6.68;1.88;;;10.40;99.90;;;;;;5074297;28;20077;-61
2023/04/13 12:56:27;;;;;;;11.00;2.20;;;10.50;99.90;;;;;;5054896;28;20049;-61